»·PEaware :: N585MJ KCVO-KDLS

N585MJ :: KCVO-KDLS

FLIGHT INFORMATION

Flight Status: Arrived
Operator: Privately registered:
United States
More flights under this callsign
Pilot: Michael C. (29659)
Aircraft: BEECH AIRCRAFT BONANZA
(BE35)
More flights by this aircraft type
Origin: KCVO Corvallis Mun
United States
Destination: KDLS Columbia Gorge Regl/The Dalle
United States
More flights between these airports :: More routes between these airports
Route: +SHEDD3 SHEDD V536 MANTE V269 DSD V25 KUKTE
File this flight plan on PilotEdge
Remarks:
Altitude:
(Current/Filed)
11,000ft
Speed:
(Current/Filed)
160kts
Departed: 01-Aug-20 08:57 AM
Arrived: 01-Aug-20 10:36 AM
Distance/Time
Traveled:
112nm/1:39
Distance/Time
To Go:
Arrived

Flight Plot

Page will automatically refresh every two minutes.

Flight plan parsing failed; only flown route is shown


Map Options




Map Legend


Flown Route
Filed Route
Departure Airport
Arrival Airport
Navaid (VOR, NDB)
Fix

Horizontal Profiles

Position Reports

Time Latitude Longitude Heading Altitude Ground
Speed
01-Aug-20 08:43 44.502842 -123.286278 113 249ft 0kts
01-Aug-20 08:45 44.502842 -123.286278 113 249ft 0kts
01-Aug-20 08:46 44.502842 -123.286278 113 249ft 0kts
01-Aug-20 08:47 44.502842 -123.286278 113 249ft 0kts
01-Aug-20 08:48 44.502842 -123.286278 113 249ft 0kts
01-Aug-20 08:49 44.502823 -123.286174 105 249ft 0kts
01-Aug-20 08:50 44.502107 -123.286496 258 249ft 10kts
01-Aug-20 08:51 44.501968 -123.289558 188 249ft 13kts
01-Aug-20 08:52 44.498526 -123.290370 180 249ft 18kts
01-Aug-20 08:53 44.490040 -123.291868 182 249ft 37kts
01-Aug-20 08:54 44.487564 -123.292583 272 249ft 0kts
01-Aug-20 08:55 44.487564 -123.292583 272 249ft 0kts
01-Aug-20 08:56 44.487766 -123.293554 323 249ft 0kts
01-Aug-20 08:57 44.499769 -123.287871 32 652ft 77kts
01-Aug-20 08:58 44.502738 -123.256539 144 1325ft 108kts
01-Aug-20 08:59 44.487835 -123.224668 91 2070ft 113kts
01-Aug-20 09:00 44.485172 -123.183604 93 3006ft 95kts
01-Aug-20 09:01 44.482364 -123.149664 94 3748ft 91kts
01-Aug-20 09:01 44.479272 -123.117413 96 4190ft 109kts
01-Aug-20 09:03 44.473796 -123.065656 98 4890ft 115kts
01-Aug-20 09:04 44.469018 -123.022938 99 5573ft 106kts
01-Aug-20 09:04 44.465302 -122.990229 99 6132ft 100kts
01-Aug-20 09:05 44.460726 -122.950454 100 6743ft 108kts
01-Aug-20 09:07 44.454990 -122.900846 101 7545ft 112kts
01-Aug-20 09:07 44.450837 -122.864716 102 8132ft 114kts
01-Aug-20 09:08 44.445680 -122.820709 103 8834ft 114kts
01-Aug-20 09:09 44.440648 -122.777456 104 9527ft 110kts
01-Aug-20 09:10 44.435893 -122.736521 105 10214ft 101kts
01-Aug-20 09:11 44.431850 -122.700582 106 10881ft 84kts
01-Aug-20 09:12 44.426869 -122.660783 104 11007ft 131kts
01-Aug-20 09:13 44.419994 -122.603879 103 11000ft 160kts
01-Aug-20 09:14 44.412569 -122.540293 102 10998ft 170kts
01-Aug-20 09:15 44.404777 -122.474403 102 10998ft 173kts
01-Aug-20 09:16 44.396812 -122.407522 102 10999ft 174kts
01-Aug-20 09:17 44.388677 -122.340263 103 11001ft 175kts
01-Aug-20 09:18 44.381249 -122.273000 97 11007ft 176kts
01-Aug-20 09:19 44.375198 -122.205520 103 11009ft 174kts
01-Aug-20 09:20 44.366364 -122.138539 104 11014ft 175kts
01-Aug-20 09:21 44.357499 -122.071458 103 11017ft 175kts
01-Aug-20 09:22 44.348590 -122.004422 103 11020ft 176kts
01-Aug-20 09:23 44.339692 -121.937037 103 11022ft 176kts
01-Aug-20 09:24 44.330732 -121.869708 103 11024ft 176kts
01-Aug-20 09:25 44.321773 -121.802215 103 11025ft 176kts
01-Aug-20 09:26 44.312807 -121.735146 103 11025ft 176kts
01-Aug-20 09:27 44.303644 -121.667517 103 11025ft 176kts
01-Aug-20 09:28 44.294543 -121.600131 103 11019ft 177kts
01-Aug-20 09:29 44.285300 -121.532598 103 11014ft 177kts
01-Aug-20 09:30 44.276046 -121.465139 103 11009ft 177kts
01-Aug-20 09:31 44.266742 -121.397675 103 11008ft 177kts
01-Aug-20 09:32 44.257207 -121.330309 105 11008ft 176kts
01-Aug-20 09:33 44.274960 -121.283736 345 11021ft 180kts
01-Aug-20 09:34 44.324878 -121.288056 352 10995ft 183kts
01-Aug-20 09:35 44.375907 -121.284666 2 10998ft 184kts
01-Aug-20 09:36 44.426846 -121.277881 2 10998ft 184kts
01-Aug-20 09:37 44.478002 -121.270584 3 10998ft 184kts
01-Aug-20 09:38 44.527894 -121.263240 3 11109ft 181kts
01-Aug-20 09:39 44.578538 -121.255848 3 11109ft 184kts
01-Aug-20 09:40 44.629312 -121.248336 3 11109ft 184kts
01-Aug-20 09:41 44.680586 -121.240748 3 11109ft 185kts
01-Aug-20 09:42 44.731640 -121.233218 3 11109ft 185kts
01-Aug-20 09:43 44.782792 -121.225473 3 11109ft 185kts
01-Aug-20 09:44 44.834278 -121.218258 356 11095ft 185kts
01-Aug-20 09:45 44.885972 -121.215754 1 11060ft 187kts
01-Aug-20 09:46 44.937992 -121.209228 3 11028ft 188kts
01-Aug-20 09:47 44.990128 -121.203956 358 11001ft 187kts
01-Aug-20 09:48 45.041976 -121.196938 1 11006ft 187kts
01-Aug-20 09:49 45.098432 -121.192951 353 10027ft 215kts
01-Aug-20 09:50 45.157695 -121.205036 337 8875ft 215kts
01-Aug-20 09:51 45.216461 -121.211832 7 7834ft 214kts
01-Aug-20 09:52 45.272701 -121.182221 8 6573ft 217kts
01-Aug-20 09:53 45.327625 -121.160916 21 6084ft 194kts
01-Aug-20 09:54 45.376753 -121.126924 19 5335ft 200kts
01-Aug-20 09:55 45.427249 -121.093123 20 4500ft 194kts
01-Aug-20 09:56 45.475282 -121.096992 325 4060ft 175kts
01-Aug-20 09:57 45.510380 -121.134039 323 4409ft 92kts
01-Aug-20 09:58 45.532297 -121.147983 332 4260ft 95kts
01-Aug-20 09:59 45.561491 -121.157391 339 2694ft 116kts
01-Aug-20 10:00 45.590415 -121.160987 345 1440ft 111kts
01-Aug-20 10:01 45.614683 -121.168583 337 1262ft 76kts
01-Aug-20 10:02 45.632317 -121.152268 44 2030ft 91kts
01-Aug-20 10:03 45.629127 -121.110351 126 2583ft 129kts
01-Aug-20 10:04 45.609048 -121.069715 121 3323ft 122kts
01-Aug-20 10:05 45.592248 -121.032750 123 4232ft 98kts
01-Aug-20 10:06 45.575455 -120.995569 121 4516ft 139kts
01-Aug-20 10:07 45.553232 -120.942827 119 4508ft 165kts
01-Aug-20 10:08 45.538141 -120.880757 88 4601ft 167kts
01-Aug-20 10:09 45.517327 -120.824599 136 4609ft 161kts
01-Aug-20 10:10 45.486066 -120.776938 127 4518ft 163kts
01-Aug-20 10:11 45.456230 -120.729165 132 4511ft 162kts
01-Aug-20 10:12 45.463528 -120.679114 351 4561ft 149kts
01-Aug-20 10:13 45.472407 -120.730881 268 4509ft 147kts
01-Aug-20 10:14 45.477486 -120.788126 305 4470ft 150kts
01-Aug-20 10:15 45.510940 -120.781228 78 4463ft 162kts
01-Aug-20 10:16 45.482786 -120.737145 139 4523ft 157kts
01-Aug-20 10:17 45.453428 -120.690815 131 4509ft 162kts
01-Aug-20 10:18 45.417432 -120.678435 238 4466ft 150kts
01-Aug-20 10:19 45.438596 -120.721131 313 4576ft 142kts
01-Aug-20 10:20 45.465027 -120.764117 306 4514ft 149kts
01-Aug-20 10:21 45.481175 -120.812812 261 4945ft 121kts
01-Aug-20 10:22 45.478521 -120.853320 257 5924ft 93kts
01-Aug-20 10:23 45.472584 -120.897030 259 6059ft 129kts
01-Aug-20 10:24 45.466474 -120.944785 251 5871ft 123kts
01-Aug-20 10:25 45.462716 -120.996368 261 4962ft 129kts
01-Aug-20 10:26 45.459650 -121.044533 263 4501ft 108kts
01-Aug-20 10:27 45.468806 -121.080915 312 4225ft 95kts
01-Aug-20 10:28 45.490769 -121.106366 321 3435ft 100kts
01-Aug-20 10:29 45.513034 -121.127372 317 3068ft 93kts
01-Aug-20 10:30 45.531700 -121.147756 328 3017ft 84kts
01-Aug-20 10:31 45.555954 -121.156426 339 2755ft 92kts
01-Aug-20 10:32 45.583531 -121.160748 344 2141ft 107kts
01-Aug-20 10:33 45.607769 -121.155030 89 1256ft 108kts
01-Aug-20 10:34 45.609445 -121.155550 288 678ft 89kts
01-Aug-20 10:35 45.618332 -121.168179 314 250ft 25kts
01-Aug-20 10:36 45.619004 -121.171670 178 250ft 16kts

Navigation Log

Ident Type
Flight plan parsing failed, navigation log unavailable